createdAt,value
2022-09-26T00:04:19.252Z,99636.88
2022-09-26T00:09:26.348Z,99634.03
2022-09-26T00:14:30.312Z,99639.56
2022-09-26T00:19:32.959Z,99627.63
2022-09-26T00:24:35.825Z,99628.50
2022-09-26T00:29:39.789Z,99627.38
2022-09-26T00:34:42.701Z,99632.91
2022-09-26T00:39:45.315Z,99634.97
2022-09-26T00:44:50.391Z,99633.97
2022-09-26T00:49:54.663Z,99623.78
2022-09-26T00:54:57.902Z,99618.25
2022-09-26T01:00:03.391Z,99609.19
2022-09-26T01:05:06.787Z,99608.88
2022-09-26T01:10:10.195Z,99596.09
2022-09-26T01:15:15.674Z,99596.66
2022-09-26T01:20:24.920Z,99598.34
2022-09-26T01:25:32.788Z,99591.13
2022-09-26T01:30:39.503Z,99584.59
2022-09-26T01:35:52.654Z,99585.31
2022-09-26T01:41:05.353Z,99582.63
2022-09-26T01:46:14.601Z,99580.81
2022-09-26T01:51:20.607Z,99578.81
2022-09-26T01:56:24.786Z,99581.06
2022-09-26T02:01:29.993Z,99574.13
2022-09-26T02:06:36.030Z,99562.69
2022-09-26T02:11:38.939Z,99560.88
2022-09-26T02:16:46.221Z,99547.97
2022-09-26T02:21:49.891Z,99544.19
2022-09-26T02:26:53.595Z,99542.50
2022-09-26T02:31:58.623Z,99533.34
2022-09-26T02:37:01.908Z,99528.41
2022-09-26T02:42:13.577Z,99536.22
2022-09-26T02:47:34.936Z,99529.75
2022-09-26T02:52:43.103Z,99522.28
2022-09-26T02:57:48.541Z,99519.16
2022-09-26T03:02:56.566Z,99517.38
2022-09-26T03:08:00.650Z,99517.25
2022-09-26T03:13:05.783Z,99513.28
2022-09-26T03:18:12.862Z,99506.53
2022-09-26T03:23:15.902Z,99504.53
2022-09-26T03:28:19.716Z,99501.00
2022-09-26T03:33:23.639Z,99502.84
2022-09-26T03:38:26.625Z,99492.38
2022-09-26T03:43:43.677Z,99492.66
2022-09-26T03:48:49.065Z,99490.44
2022-09-26T03:53:51.756Z,99481.53
2022-09-26T03:58:56.836Z,99476.84
2022-09-26T04:04:01.084Z,99468.09
2022-09-26T04:09:04.352Z,99459.88
2022-09-26T04:14:08.063Z,99458.19
2022-09-26T04:19:13.042Z,99463.56
2022-09-26T04:24:16.900Z,99464.41
2022-09-26T04:29:19.485Z,99458.88
2022-09-26T04:34:35.130Z,99462.00
2022-09-26T04:39:37.891Z,99461.16
2022-09-26T04:44:40.540Z,99448.84
2022-09-26T04:49:45.067Z,99453.09
2022-09-26T04:54:47.857Z,99446.31
2022-09-26T04:59:50.448Z,99444.47
2022-09-26T05:04:55.095Z,99442.63
2022-09-26T05:09:58.026Z,99443.63
2022-09-26T05:15:08.615Z,99443.91
2022-09-26T05:20:14.218Z,99440.69
2022-09-26T05:25:53.704Z,99443.38
2022-09-26T05:30:56.869Z,99434.75
2022-09-26T05:41:03.903Z,99442.69
2022-09-26T05:46:08.101Z,99447.06
2022-09-26T05:51:17.049Z,99421.75
2022-09-26T05:56:20.390Z,99435.59
2022-09-26T06:02:01.429Z,99424.06
2022-09-26T06:07:34.889Z,99419.53
2022-09-26T06:12:39.613Z,99424.06
2022-09-26T06:17:42.280Z,99418.53
2022-09-26T06:22:47.147Z,99417.38
2022-09-26T06:27:50.295Z,99419.75
2022-09-26T06:32:53.295Z,99413.97
2022-09-26T06:38:16.581Z,99407.16
2022-09-26T06:43:19.298Z,99401.88
2022-09-26T06:48:40.391Z,99399.91
2022-09-26T06:53:57.515Z,99401.13
2022-09-26T06:59:03.726Z,99404.22
2022-09-26T07:04:11.617Z,99404.75
2022-09-26T07:09:21.588Z,99397.38
2022-09-26T07:14:30.945Z,99397.81
2022-09-26T07:19:39.898Z,99400.47
2022-09-26T07:24:48.716Z,99392.56
2022-09-26T07:29:51.365Z,99395.19
2022-09-26T07:34:56.334Z,99398.28
2022-09-26T07:40:01.864Z,99396.13
2022-09-26T07:45:26.124Z,99393.91
2022-09-26T07:50:31.103Z,99397.16
2022-09-26T07:56:01.458Z,99393.84
2022-09-26T08:01:30.283Z,99381.88
2022-09-26T08:06:36.662Z,99381.50
2022-09-26T08:11:41.746Z,99379.59
2022-09-26T08:17:14.098Z,99368.97
2022-09-26T08:22:17.071Z,99372.06
2022-09-26T08:27:22.647Z,99373.44
2022-09-26T08:32:25.511Z,99369.91
2022-09-26T08:37:28.802Z,99366.94
2022-09-26T08:42:57.333Z,99360.59
2022-09-26T08:48:36.901Z,99353.09
2022-09-26T08:53:49.179Z,99360.31
2022-09-26T08:58:53.790Z,99350.84
2022-09-26T09:04:03.166Z,99349.66
2022-09-26T09:09:06.355Z,99348.41
2022-09-26T09:15:25.791Z,99344.78
2022-09-26T09:20:46.777Z,99335.03
2022-09-26T09:31:42.879Z,99331.94
2022-09-26T09:36:58.949Z,99324.72
2022-09-26T09:42:21.620Z,99325.31
2022-09-26T09:47:28.252Z,99315.69
2022-09-26T09:52:40.055Z,99303.41
2022-09-26T09:57:53.371Z,99301.69
2022-09-26T10:03:02.183Z,99299.84
2022-09-26T10:08:13.132Z,99292.50
2022-09-26T10:13:34.816Z,99280.66
2022-09-26T10:19:02.314Z,99279.81
2022-09-26T10:24:06.605Z,99263.28
2022-09-26T10:29:23.276Z,99267.63
2022-09-26T10:34:28.303Z,99267.72
2022-09-26T10:39:48.676Z,99258.22
2022-09-26T10:44:51.451Z,99260.47
2022-09-26T10:49:59.238Z,99251.50
2022-09-26T10:55:24.801Z,99255.84
2022-09-26T11:00:37.474Z,99253.22
2022-09-26T11:05:58.081Z,99241.22
2022-09-26T11:11:11.161Z,99230.84
2022-09-26T11:16:19.077Z,99218.19
2022-09-26T11:21:29.346Z,99206.66
2022-09-26T11:26:35.984Z,99212.97
2022-09-26T11:31:40.951Z,99206.50
2022-09-26T11:37:22.069Z,99186.78
2022-09-26T11:42:30.681Z,99202.16
2022-09-26T11:47:50.022Z,99188.09
2022-09-26T11:53:11.034Z,99185.94
2022-09-26T11:58:16.748Z,99173.88
2022-09-26T12:03:29.893Z,99168.84
2022-09-26T12:08:42.626Z,99169.63
2022-09-26T12:13:52.214Z,99159.53
2022-09-26T12:18:59.384Z,99161.88
2022-09-26T12:24:07.172Z,99154.88
2022-09-26T12:29:16.911Z,99148.16
2022-09-26T12:34:37.175Z,99121.81
2022-09-26T12:39:49.066Z,99118.41
2022-09-26T12:44:58.569Z,99117.13
2022-09-26T12:50:08.669Z,99112.41
2022-09-26T12:55:19.408Z,99100.38
2022-09-26T13:00:23.054Z,99113.66
2022-09-26T13:05:46.177Z,99108.81
2022-09-26T13:11:00.871Z,99095.81
2022-09-26T13:16:14.209Z,99079.16
2022-09-26T13:21:18.926Z,99075.81
2022-09-26T13:26:25.991Z,99069.84
2022-09-26T13:31:32.734Z,99065.13
2022-09-26T13:36:35.522Z,99062.03
2022-09-26T13:41:42.105Z,99037.88
2022-09-26T13:46:52.339Z,99048.00
2022-09-26T13:52:03.301Z,99040.22
2022-09-26T13:57:27.699Z,99042.25
2022-09-26T14:02:31.858Z,99031.44
2022-09-26T14:08:07.458Z,99032.59
2022-09-26T14:13:20.051Z,99032.59
2022-09-26T14:18:30.105Z,99021.00
2022-09-26T14:23:41.077Z,99016.94
2022-09-26T14:28:52.866Z,99019.59
2022-09-26T14:34:06.403Z,99019.09
2022-09-26T14:39:35.770Z,99028.00
2022-09-26T14:44:40.534Z,99009.13
2022-09-26T14:49:43.210Z,99026.78
2022-09-26T14:54:45.869Z,99021.63
2022-09-26T14:59:49.882Z,99011.44
2022-09-26T15:05:01.245Z,99001.34
2022-09-26T15:10:05.830Z,98995.59
2022-09-26T15:15:18.247Z,98996.09
2022-09-26T15:20:21.780Z,98968.00
2022-09-26T15:25:25.735Z,98966.13
2022-09-26T15:30:37.051Z,98969.84
2022-09-26T15:35:39.885Z,98964.28
2022-09-26T15:40:42.658Z,98964.13
2022-09-26T15:45:56.385Z,98952.16
2022-09-26T15:51:02.182Z,98941.72
2022-09-26T15:56:06.581Z,98942.56
2022-09-26T16:01:11.062Z,98933.13
2022-09-26T16:06:32.061Z,98932.47
2022-09-26T16:11:34.717Z,98929.09
2022-09-26T16:16:38.773Z,98914.47
2022-09-26T16:21:41.454Z,98912.94
2022-09-26T16:26:44.125Z,98908.41
2022-09-26T16:31:48.191Z,98915.59
2022-09-26T16:36:51.054Z,98917.03
2022-09-26T16:42:02.425Z,98916.19
2022-09-26T16:47:18.886Z,98912.41
2022-09-26T16:52:28.530Z,98904.88
2022-09-26T16:57:33.309Z,98900.66
2022-09-26T17:02:39.015Z,98898.81
2022-09-26T17:07:42.245Z,98901.38
2022-09-26T17:12:50.499Z,98897.13
2022-09-26T17:17:54.904Z,98893.78
2022-09-26T17:22:57.595Z,98898.97
2022-09-26T17:28:02.352Z,98896.81
2022-09-26T17:33:06.374Z,98893.97
2022-09-26T17:38:11.700Z,98882.72
2022-09-26T17:43:14.632Z,98877.88
2022-09-26T17:48:21.199Z,98881.72
2022-09-26T17:53:24.353Z,98871.66
2022-09-26T17:58:27.041Z,98872.00
2022-09-26T18:03:32.685Z,98867.13
2022-09-26T18:08:37.130Z,98855.50
2022-09-26T18:13:41.600Z,98853.34
2022-09-26T18:18:45.657Z,98849.97
2022-09-26T18:23:51.593Z,98840.22
2022-09-26T18:28:55.654Z,98847.63
2022-09-26T18:33:59.961Z,98839.06
2022-09-26T18:39:02.630Z,98835.03
2022-09-26T18:44:05.398Z,98826.78
2022-09-26T18:49:12.713Z,98817.53
2022-09-26T18:54:17.188Z,98826.97
2022-09-26T18:59:20.402Z,98828.47
2022-09-26T19:04:26.065Z,98818.38
2022-09-26T19:09:31.749Z,98818.53
2022-09-26T19:14:35.493Z,98815.41
2022-09-26T19:19:40.053Z,98818.75
2022-09-26T19:24:43.765Z,98819.94
2022-09-26T19:29:48.642Z,98810.00
2022-09-26T19:34:54.549Z,98803.63
2022-09-26T19:39:57.777Z,98800.75
2022-09-26T19:45:01.005Z,98800.22
2022-09-26T19:50:05.722Z,98798.38
2022-09-26T19:55:13.817Z,98784.59
2022-09-26T20:00:17.648Z,98786.09
2022-09-26T20:05:22.475Z,98782.56
2022-09-26T20:10:25.635Z,98783.91
2022-09-26T20:15:28.335Z,98776.66
2022-09-26T20:20:32.616Z,98776.66
2022-09-26T20:25:37.473Z,98773.81
2022-09-26T20:30:52.332Z,98768.59
2022-09-26T20:36:02.612Z,98756.66
2022-09-26T20:41:12.888Z,98751.94
2022-09-26T20:46:16.704Z,98753.63
2022-09-26T20:51:21.762Z,98744.03
2022-09-26T20:56:24.448Z,98729.72
2022-09-26T21:01:27.675Z,98727.22
2022-09-26T21:06:34.261Z,98713.91
2022-09-26T21:11:36.926Z,98708.19
2022-09-26T21:16:47.022Z,98707.19
2022-09-26T21:21:53.724Z,98701.44
2022-09-26T21:27:14.950Z,98682.78
2022-09-26T21:32:20.196Z,98672.00
2022-09-26T21:37:24.403Z,98674.53
2022-09-26T21:42:27.113Z,98656.50
2022-09-26T21:47:29.754Z,98657.53
2022-09-26T21:52:35.198Z,98641.19
2022-09-26T21:57:39.718Z,98640.19
2022-09-26T22:02:42.430Z,98632.94
2022-09-26T22:07:46.480Z,98626.06
2022-09-26T22:12:49.098Z,98613.47
2022-09-26T22:17:51.960Z,98596.38
2022-09-26T22:22:56.205Z,98592.88
2022-09-26T22:27:58.885Z,98594.72
2022-09-26T22:33:01.557Z,98568.00
2022-09-26T22:38:05.669Z,98568.34
2022-09-26T22:43:08.328Z,98569.72
2022-09-26T22:48:10.989Z,98562.50
2022-09-26T22:53:15.009Z,98558.97
2022-09-26T22:58:17.761Z,98554.28
2022-09-26T23:03:20.574Z,98543.69
2022-09-26T23:08:24.606Z,98528.47
2022-09-26T23:13:27.377Z,98521.72
2022-09-26T23:18:30.885Z,98518.06
2022-09-26T23:23:34.881Z,98513.53
2022-09-26T23:28:37.686Z,98500.09
2022-09-26T23:33:40.400Z,98499.44
2022-09-26T23:38:45.110Z,98486.31
2022-09-26T23:43:47.756Z,98470.34
2022-09-26T23:48:50.667Z,98476.75
2022-09-26T23:53:54.932Z,98464.50
2022-09-26T23:58:57.839Z,98459.44
